TimeMST,TemperatureF,Dew PointF,Humidity,Sea Level PressureIn,VisibilityMPH,Wind Direction,Wind SpeedMPH,Gust SpeedMPH,PrecipitationIn,Events,Conditions,WindDirDegrees,DateUTC
12:56 AM,12.0,5.0,73,30.14,-9999.0,ENE,5.8,-,N/A,,Unknown,60,2013-01-13 07:56:00
1:56 AM,10.9,6.1,81,30.14,-9999.0,NE,5.8,-,N/A,,Unknown,40,2013-01-13 08:56:00
2:56 AM,10.9,6.1,81,30.17,-9999.0,North,4.6,-,N/A,,Unknown,360,2013-01-13 09:56:00
3:56 AM,10.9,7.0,84,30.17,-9999.0,North,3.5,-,0.01,,Unknown,360,2013-01-13 10:56:00
4:56 AM,10.0,6.1,84,30.18,-9999.0,Calm,Calm,-,N/A,,Unknown,0,2013-01-13 11:56:00
5:56 AM,7.0,3.9,87,30.22,-9999.0,ESE,3.5,-,N/A,,Unknown,120,2013-01-13 12:56:00
6:56 AM,6.1,1.0,80,30.25,-9999.0,ESE,3.5,-,N/A,,Unknown,120,2013-01-13 13:56:00
7:56 AM,6.1,3.0,87,30.26,-9999.0,Calm,Calm,-,N/A,,Unknown,0,2013-01-13 14:56:00
8:56 AM,10.9,7.0,84,30.26,-9999.0,Calm,Calm,-,N/A,,Unknown,0,2013-01-13 15:56:00
9:56 AM,12.9,8.1,81,30.25,-9999.0,South,4.6,-,N/A,,Unknown,180,2013-01-13 16:56:00
10:56 AM,17.1,10.0,74,30.22,-9999.0,Variable,3.5,-,N/A,,Unknown,0,2013-01-13 17:56:00
11:56 AM,19.0,10.9,71,30.19,-9999.0,SW,5.8,-,N/A,,Unknown,220,2013-01-13 18:56:00
12:56 PM,19.9,10.9,68,30.17,-9999.0,SSW,6.9,-,N/A,,Unknown,210,2013-01-13 19:56:00
1:56 PM,21.9,10.9,63,30.14,-9999.0,South,9.2,-,N/A,,Unknown,180,2013-01-13 20:56:00
2:56 PM,23.0,10.0,58,30.16,-9999.0,SSE,9.2,-,N/A,,Unknown,150,2013-01-13 21:56:00
3:56 PM,23.0,9.0,55,30.16,-9999.0,SSE,10.4,-,N/A,,Unknown,160,2013-01-13 22:56:00
4:56 PM,19.0,9.0,65,30.19,-9999.0,SSE,5.8,-,N/A,,Unknown,160,2013-01-13 23:56:00
5:56 PM,16.0,9.0,74,30.22,-9999.0,SSE,8.1,-,N/A,,Unknown,160,2013-01-14 00:56:00
6:56 PM,15.1,9.0,77,30.25,-9999.0,SE,6.9,-,N/A,,Unknown,140,2013-01-14 01:56:00
7:56 PM,12.9,9.0,84,30.26,-9999.0,SE,5.8,-,N/A,,Unknown,140,2013-01-14 02:56:00
8:56 PM,14.0,10.0,84,30.26,-9999.0,South,4.6,-,N/A,,Unknown,170,2013-01-14 03:56:00
9:56 PM,14.0,10.0,84,30.26,-9999.0,South,4.6,-,N/A,,Unknown,170,2013-01-14 04:56:00
10:56 PM,15.1,10.0,80,30.25,-9999.0,SSE,4.6,-,N/A,,Unknown,160,2013-01-14 05:56:00
11:56 PM,15.1,10.9,84,30.24,-9999.0,SE,4.6,-,N/A,,Unknown,140,2013-01-14 06:56:00